createdAt,value
2023-03-17T00:00:54.140Z,9.00
2023-03-17T00:02:03.400Z,9.05
2023-03-17T00:03:07.901Z,6.90
2023-03-17T00:04:13.607Z,6.05
2023-03-17T00:05:25.512Z,5.20
2023-03-17T00:06:31.466Z,10.90
2023-03-17T00:07:36.313Z,11.73
2023-03-17T00:08:39.416Z,8.18
2023-03-17T00:09:43.395Z,10.07
2023-03-17T00:10:46.954Z,7.78
2023-03-17T00:11:52.896Z,7.78
2023-03-17T00:12:56.120Z,9.13
2023-03-17T00:13:59.685Z,9.87
2023-03-17T00:15:03.402Z,7.18
2023-03-17T00:16:14.424Z,9.13
2023-03-17T00:17:17.019Z,7.70
2023-03-17T00:18:22.769Z,11.93
2023-03-17T00:19:30.214Z,6.50
2023-03-17T00:20:34.874Z,8.18
2023-03-17T00:21:38.212Z,10.82
2023-03-17T00:22:42.061Z,7.65
2023-03-17T00:23:51.847Z,7.45
2023-03-17T00:24:56.815Z,8.77
2023-03-17T00:26:00.234Z,8.57
2023-03-17T00:27:12.704Z,8.13
2023-03-17T00:28:19.014Z,10.60
2023-03-17T00:29:22.652Z,9.25
2023-03-17T00:30:27.491Z,6.20
2023-03-17T00:31:32.936Z,8.00
2023-03-17T01:52:24.069Z,11.02
2023-03-17T01:53:28.542Z,7.40
2023-03-17T01:54:41.048Z,7.28
2023-03-17T01:55:45.866Z,8.80
2023-03-17T01:56:55.481Z,12.38
2023-03-17T01:57:58.851Z,14.20
2023-03-17T01:59:08.928Z,7.67
2023-03-17T02:00:18.379Z,9.52
2023-03-17T02:01:30.826Z,7.32
2023-03-17T02:02:42.396Z,8.27
2023-03-17T02:03:47.254Z,9.00
2023-03-17T02:05:00.922Z,9.25
2023-03-17T02:06:07.384Z,13.95
2023-03-17T02:07:13.690Z,9.82
2023-03-17T02:08:17.034Z,8.25
2023-03-17T02:09:23.280Z,7.28
2023-03-17T02:10:29.201Z,7.17
2023-03-17T02:11:37.733Z,7.30
2023-03-17T02:12:52.455Z,8.05
2023-03-17T02:13:56.798Z,6.22
2023-03-17T02:15:01.106Z,11.68
2023-03-17T02:16:04.489Z,5.78
2023-03-17T02:17:10.069Z,9.65
2023-03-17T02:18:19.624Z,6.38
2023-03-17T02:19:23.522Z,13.10
2023-03-17T02:21:03.840Z,11.07
2023-03-17T02:22:09.742Z,8.87
2023-03-17T02:23:13.237Z,7.45
2023-03-17T02:24:22.396Z,8.73
2023-03-17T02:25:30.862Z,9.60
2023-03-17T02:26:38.860Z,15.57
2023-03-17T02:27:46.556Z,10.77
2023-03-17T02:28:49.902Z,11.63
2023-03-17T02:29:55.626Z,11.82
2023-03-17T02:30:58.286Z,10.90
2023-03-17T02:32:03.869Z,10.35
2023-03-17T09:02:05.086Z,6.30
2023-03-17T09:03:10.560Z,6.18
2023-03-17T09:04:15.543Z,7.72
2023-03-17T09:05:18.898Z,7.85
2023-03-17T09:06:22.730Z,9.90
2023-03-17T09:07:25.248Z,6.65
2023-03-17T09:08:29.565Z,8.68
2023-03-17T09:09:32.368Z,6.80
2023-03-17T09:10:36.470Z,6.43
2023-03-17T09:11:40.476Z,10.65
2023-03-17T09:12:43.290Z,7.72
2023-03-17T09:13:48.201Z,7.93
2023-03-17T09:14:51.901Z,7.60
2023-03-17T09:15:54.573Z,6.80
2023-03-17T09:16:58.745Z,5.43
2023-03-17T09:18:02.066Z,8.98
2023-03-17T09:19:07.352Z,5.25
2023-03-17T09:20:13.962Z,8.13
2023-03-17T09:21:18.687Z,6.88
2023-03-17T09:22:22.565Z,6.72
2023-03-17T09:23:26.043Z,7.85
2023-03-17T09:24:30.007Z,8.32
2023-03-17T09:25:35.412Z,6.57
2023-03-17T09:27:34.812Z,10.10
2023-03-17T09:28:39.165Z,34.35
2023-03-17T09:31:14.705Z,11.15
2023-03-17T09:37:36.386Z,9.73
2023-03-17T09:38:39.382Z,8.85
2023-03-17T09:39:43.032Z,8.98
2023-03-17T09:40:49.964Z,9.55
2023-03-17T09:42:09.053Z,9.50
2023-03-17T09:43:24.998Z,5.53
2023-03-17T09:44:48.123Z,8.52
2023-03-17T09:45:52.826Z,6.97
2023-03-17T09:52:16.314Z,5.60
2023-03-17T09:53:23.367Z,14.13
2023-03-17T09:54:30.101Z,8.00
2023-03-17T09:55:34.432Z,9.05
2023-03-17T09:56:42.455Z,10.15
2023-03-17T09:57:45.498Z,8.82
2023-03-17T09:58:53.303Z,9.30
2023-03-17T10:00:04.809Z,10.82
2023-03-17T10:01:12.954Z,11.10
2023-03-17T10:02:22.891Z,6.47
2023-03-17T10:03:27.546Z,6.50
2023-03-17T10:04:31.049Z,6.78
2023-03-17T10:05:36.337Z,10.32
2023-03-17T10:06:43.988Z,10.50
2023-03-17T10:07:52.343Z,12.15
2023-03-17T10:09:04.484Z,5.57
2023-03-17T10:10:16.064Z,6.68
2023-03-17T10:11:28.122Z,9.98
2023-03-17T10:12:44.871Z,13.17
2023-03-17T10:13:54.989Z,9.50
2023-03-17T10:15:02.916Z,12.35
2023-03-17T10:16:09.986Z,7.97
2023-03-17T10:17:17.927Z,4.57
2023-03-17T10:18:25.002Z,8.65
2023-03-17T10:19:31.914Z,7.50
2023-03-17T10:20:40.162Z,6.43
2023-03-17T10:21:51.639Z,7.25
2023-03-17T10:22:59.408Z,8.18
2023-03-17T10:24:05.679Z,6.40
2023-03-17T10:25:16.070Z,6.80
2023-03-17T10:26:28.999Z,8.23
2023-03-17T10:27:34.855Z,6.97
2023-03-17T10:28:39.226Z,10.82
2023-03-17T10:29:42.253Z,7.43
2023-03-17T10:30:46.131Z,7.63
2023-03-17T10:31:49.649Z,10.13
2023-03-17T10:32:55.510Z,6.35
2023-03-17T10:34:14.012Z,5.35
2023-03-17T10:35:18.759Z,8.23
2023-03-17T10:36:35.634Z,9.23
2023-03-17T10:37:39.404Z,9.02
2023-03-17T10:38:41.975Z,9.50
2023-03-17T10:39:49.600Z,10.70
2023-03-17T10:40:57.323Z,7.53
2023-03-17T10:42:09.049Z,7.40
2023-03-17T10:43:20.680Z,10.57
2023-03-17T10:44:42.193Z,12.30
2023-03-17T10:45:59.164Z,9.15
2023-03-17T10:47:03.152Z,12.10
2023-03-17T10:48:10.285Z,10.77
2023-03-17T10:49:18.478Z,10.55
2023-03-17T10:50:24.799Z,7.75
2023-03-17T10:51:32.151Z,9.60
2023-03-17T10:52:41.168Z,8.60
2023-03-17T10:53:44.039Z,10.15
2023-03-17T10:54:52.778Z,6.85
2023-03-17T10:55:57.827Z,11.32
2023-03-17T10:57:05.439Z,9.95
2023-03-17T10:58:16.869Z,9.03
2023-03-17T10:59:21.697Z,8.50
2023-03-17T11:00:26.732Z,9.25
2023-03-17T11:01:37.269Z,8.60
2023-03-17T11:02:47.563Z,9.05
2023-03-17T11:03:51.043Z,10.57
2023-03-17T11:05:00.134Z,11.45
2023-03-17T11:06:06.554Z,10.88
2023-03-17T11:07:17.690Z,6.32
2023-03-17T11:08:21.192Z,8.45
2023-03-17T11:09:26.473Z,7.73
2023-03-17T11:10:37.856Z,9.52
2023-03-17T11:11:47.011Z,7.90
2023-03-17T11:12:55.534Z,10.50
2023-03-17T11:14:03.969Z,8.52
2023-03-17T11:15:11.728Z,9.48
2023-03-17T11:16:23.750Z,8.63
2023-03-17T11:17:38.324Z,73.47
2023-03-17T11:18:42.391Z,119.63
2023-03-17T11:19:53.542Z,18.83
2023-03-17T11:21:00.239Z,13.87
2023-03-17T11:22:11.760Z,10.00
2023-03-17T11:23:40.087Z,35.95
2023-03-17T11:24:55.559Z,12.68
2023-03-17T11:26:14.875Z,11.50
2023-03-17T11:27:30.395Z,10.27
2023-03-17T11:28:41.264Z,10.15
2023-03-17T11:29:54.676Z,11.73
2023-03-17T11:31:07.687Z,7.68
2023-03-17T11:32:27.465Z,6.28
2023-03-17T11:33:36.395Z,6.57
2023-03-17T11:34:53.871Z,10.43
2023-03-17T11:36:01.788Z,11.02
2023-03-17T11:37:15.018Z,8.02
2023-03-17T11:38:26.123Z,9.90
2023-03-17T11:39:37.120Z,8.90
2023-03-17T11:40:54.326Z,9.50
2023-03-17T11:42:11.678Z,9.48
2023-03-17T11:43:28.654Z,8.18
2023-03-17T11:45:05.062Z,8.07
2023-03-17T11:46:11.874Z,8.57
2023-03-17T11:47:27.065Z,7.65
2023-03-17T11:48:43.070Z,7.15
2023-03-17T11:49:54.131Z,7.57
2023-03-17T11:51:03.847Z,10.55
2023-03-17T11:52:17.501Z,9.77
2023-03-17T11:53:37.758Z,9.85
2023-03-17T11:54:52.513Z,6.25
2023-03-17T11:56:01.548Z,10.45
2023-03-17T11:57:10.784Z,9.75
2023-03-17T11:58:24.166Z,12.53
2023-03-17T11:59:34.622Z,7.13
2023-03-17T12:00:43.992Z,8.82
2023-03-17T12:01:56.270Z,9.52
2023-03-17T12:03:07.395Z,10.55
2023-03-17T12:04:18.986Z,12.07
2023-03-17T12:05:26.482Z,11.02
2023-03-17T12:06:34.125Z,11.77
2023-03-17T12:07:42.585Z,9.30
2023-03-17T12:08:52.779Z,8.57
2023-03-17T12:10:05.303Z,9.33
2023-03-17T12:11:13.003Z,9.98
2023-03-17T12:12:28.150Z,12.63
2023-03-17T12:13:40.325Z,7.75
2023-03-17T12:14:48.851Z,8.27
2023-03-17T12:15:54.779Z,9.27
2023-03-17T12:17:06.368Z,9.20
2023-03-17T12:18:16.467Z,12.52
2023-03-17T12:19:23.732Z,11.00
2023-03-17T12:20:34.128Z,8.05
2023-03-17T12:21:40.149Z,12.33
2023-03-17T12:22:48.753Z,10.70
2023-03-17T12:23:59.034Z,10.73
2023-03-17T12:25:14.675Z,8.98
2023-03-17T12:26:20.393Z,8.02
2023-03-17T12:27:29.348Z,10.48
2023-03-17T12:28:39.716Z,10.68
2023-03-17T12:29:49.912Z,8.68
2023-03-17T12:30:57.468Z,9.00
2023-03-17T12:32:06.122Z,9.45
2023-03-17T12:33:18.611Z,9.53
2023-03-17T12:34:26.840Z,7.95
2023-03-17T12:35:34.315Z,10.13
2023-03-17T12:36:39.424Z,10.52
2023-03-17T12:37:42.060Z,10.50
2023-03-17T12:38:48.600Z,9.73
2023-03-17T12:39:56.387Z,8.57
2023-03-17T12:41:16.746Z,8.35
2023-03-17T12:42:39.471Z,29.50
2023-03-17T12:43:53.035Z,8.82
2023-03-17T12:45:20.810Z,10.30
2023-03-17T12:46:44.847Z,8.85
2023-03-17T12:48:05.274Z,7.97
2023-03-17T12:49:42.736Z,13.35
2023-03-17T12:51:06.666Z,8.07
2023-03-17T12:52:24.143Z,10.65
2023-03-17T12:53:30.380Z,10.05
2023-03-17T12:54:36.862Z,8.95
2023-03-17T12:55:39.800Z,8.88
2023-03-17T12:56:47.732Z,13.00
2023-03-17T12:58:03.622Z,10.40
2023-03-17T12:59:10.010Z,11.82
2023-03-17T13:00:27.363Z,8.50
2023-03-17T13:01:32.606Z,12.45
2023-03-17T13:02:39.969Z,11.63
2023-03-17T13:03:57.929Z,7.22
2023-03-17T13:05:03.148Z,10.13
2023-03-17T13:06:10.489Z,10.45
2023-03-17T13:07:18.342Z,8.00
2023-03-17T13:08:28.412Z,6.93
2023-03-17T13:09:43.944Z,6.50
2023-03-17T13:10:49.032Z,12.10
2023-03-17T13:11:51.727Z,10.38
2023-03-17T13:13:12.491Z,7.32
2023-03-17T13:14:25.130Z,8.32
2023-03-17T13:15:50.289Z,9.45
2023-03-17T13:17:04.792Z,9.13
2023-03-17T13:18:39.336Z,10.85
2023-03-17T13:19:57.342Z,13.65
2023-03-17T13:21:16.313Z,13.52
2023-03-17T13:22:35.526Z,9.03
2023-03-17T13:23:42.345Z,8.98
2023-03-17T13:24:49.011Z,7.93
2023-03-17T13:25:53.902Z,8.95
2023-03-17T13:27:01.036Z,6.97
2023-03-17T13:28:27.986Z,9.65
2023-03-17T13:29:44.424Z,8.15
2023-03-17T13:31:01.064Z,10.15
2023-03-17T13:32:36.198Z,9.40
2023-03-17T13:33:46.268Z,7.97
2023-03-17T13:34:51.072Z,10.20
2023-03-17T13:36:27.529Z,8.68
2023-03-17T13:37:35.123Z,10.13
2023-03-17T13:39:19.350Z,11.18
2023-03-17T13:40:30.814Z,12.00
2023-03-17T13:41:45.545Z,10.70
2023-03-17T13:43:07.863Z,10.07
2023-03-17T13:44:37.876Z,7.32
2023-03-17T13:45:41.890Z,7.68
2023-03-17T13:46:48.739Z,10.35
2023-03-17T13:47:52.806Z,7.57
2023-03-17T13:48:57.483Z,9.32
2023-03-17T13:50:08.160Z,9.23
2023-03-17T13:51:20.901Z,9.45
2023-03-17T13:52:29.445Z,11.85
2023-03-17T13:53:39.064Z,16.27
2023-03-17T13:54:47.243Z,8.48
2023-03-17T13:56:15.682Z,9.55
2023-03-17T13:57:28.639Z,10.32
2023-03-17T13:58:36.362Z,8.40
2023-03-17T13:59:58.408Z,16.13
2023-03-17T14:01:06.826Z,13.18
2023-03-17T14:02:17.036Z,8.60
2023-03-17T14:03:29.172Z,8.45
2023-03-17T14:04:41.961Z,10.80
2023-03-17T14:05:48.610Z,10.07
2023-03-17T14:06:55.078Z,8.25
2023-03-17T14:08:01.938Z,9.50
2023-03-17T14:09:11.225Z,11.15
2023-03-17T14:10:18.866Z,7.68
2023-03-17T14:11:29.267Z,8.23
2023-03-17T14:12:39.823Z,7.63
2023-03-17T14:13:48.737Z,9.30
2023-03-17T14:15:07.644Z,11.63
2023-03-17T14:16:18.404Z,8.32
2023-03-17T14:17:26.097Z,7.38
2023-03-17T14:18:33.201Z,9.65
2023-03-17T14:19:41.678Z,6.20
2023-03-17T14:20:54.565Z,9.30
2023-03-17T14:22:04.610Z,10.00
2023-03-17T14:23:08.253Z,5.60
2023-03-17T14:24:22.894Z,8.18
2023-03-17T14:25:27.933Z,7.53
2023-03-17T14:26:32.841Z,15.95
2023-03-17T14:27:38.108Z,11.27
2023-03-17T14:28:41.148Z,10.18
2023-03-17T14:29:44.815Z,12.45
2023-03-17T14:30:56.646Z,11.10
2023-03-17T14:32:04.818Z,12.45
2023-03-17T14:33:20.696Z,11.10
2023-03-17T14:34:26.186Z,9.97
2023-03-17T14:35:33.285Z,11.13
2023-03-17T14:36:37.734Z,15.27
2023-03-17T14:37:41.832Z,12.40
2023-03-17T14:38:49.672Z,15.25
2023-03-17T14:39:54.809Z,12.77
2023-03-17T14:41:04.568Z,10.73
2023-03-17T14:42:07.575Z,14.95
2023-03-17T14:43:12.326Z,12.00
2023-03-17T14:44:14.838Z,12.02
2023-03-17T14:45:22.622Z,11.50
2023-03-17T14:46:29.913Z,8.27
2023-03-17T14:47:40.277Z,11.52
2023-03-17T14:48:46.702Z,10.07
2023-03-17T14:49:52.230Z,13.52
2023-03-17T14:50:57.273Z,13.00
2023-03-17T14:52:01.901Z,7.40
2023-03-17T14:53:05.553Z,11.00
2023-03-17T14:54:16.210Z,12.32
2023-03-17T14:55:19.940Z,14.80
2023-03-17T14:56:24.352Z,9.20
2023-03-17T14:57:30.382Z,10.35
2023-03-17T14:58:37.835Z,11.52
2023-03-17T14:59:43.629Z,15.65
2023-03-17T15:00:47.369Z,16.90
2023-03-17T15:01:56.694Z,12.35
2023-03-17T15:03:03.451Z,9.43
2023-03-17T15:04:11.863Z,12.88
2023-03-17T15:05:27.937Z,16.35
2023-03-17T15:06:30.815Z,12.52
2023-03-17T15:07:39.910Z,11.07
2023-03-17T15:08:46.457Z,11.65
2023-03-17T15:09:59.840Z,10.57
2023-03-17T15:11:04.532Z,13.32
2023-03-17T15:12:17.032Z,12.27
2023-03-17T15:13:19.937Z,11.00
2023-03-17T15:14:31.302Z,11.60
2023-03-17T15:15:35.812Z,10.32
2023-03-17T15:16:40.863Z,11.50
2023-03-17T15:17:51.696Z,11.70
2023-03-17T15:19:07.545Z,18.07
2023-03-17T15:20:17.590Z,13.90
2023-03-17T15:21:23.983Z,13.25
2023-03-17T15:22:31.831Z,12.30
2023-03-17T15:23:40.965Z,16.58
2023-03-17T15:24:45.332Z,19.85
2023-03-17T15:25:51.285Z,15.95
2023-03-17T15:27:03.136Z,11.82
2023-03-17T15:28:11.969Z,11.65
2023-03-17T15:29:15.819Z,15.65
2023-03-17T15:30:20.158Z,12.70
2023-03-17T15:31:28.467Z,11.48
2023-03-17T15:32:32.551Z,11.55
2023-03-17T15:33:38.107Z,13.50
2023-03-17T15:34:42.495Z,12.57
2023-03-17T15:35:45.311Z,12.20
2023-03-17T15:36:50.220Z,13.55
2023-03-17T15:37:53.183Z,21.67
2023-03-17T15:38:57.086Z,12.10
2023-03-17T15:40:02.294Z,23.08
2023-03-17T15:41:04.829Z,15.13
2023-03-17T15:42:09.144Z,22.60
2023-03-17T15:43:15.770Z,20.58
2023-03-17T15:44:18.278Z,10.95
2023-03-17T15:45:21.718Z,17.50
2023-03-17T15:46:27.755Z,18.05
2023-03-17T15:47:33.566Z,13.77
2023-03-17T15:48:37.807Z,13.30
2023-03-17T15:49:41.553Z,15.70
2023-03-17T15:50:45.500Z,18.48
2023-03-17T15:51:49.065Z,18.40
2023-03-17T15:52:56.183Z,14.20
2023-03-17T15:53:58.727Z,16.60
2023-03-17T15:55:03.575Z,17.65
2023-03-17T15:56:10.052Z,13.18
2023-03-17T15:57:14.273Z,15.57
2023-03-17T15:58:16.636Z,15.00
2023-03-17T15:59:20.788Z,19.60
2023-03-17T16:00:25.316Z,19.60
2023-03-17T16:01:29.184Z,12.25
2023-03-17T16:02:33.661Z,20.30
2023-03-17T16:03:39.135Z,15.43
2023-03-17T16:04:41.723Z,15.57
2023-03-17T16:05:45.701Z,18.75
2023-03-17T16:06:49.794Z,13.77
2023-03-17T16:07:52.796Z,17.33
2023-03-17T16:08:56.972Z,13.40
2023-03-17T16:09:59.832Z,13.82
2023-03-17T16:11:03.754Z,19.55
2023-03-17T16:12:08.891Z,13.23
2023-03-17T16:13:12.900Z,10.60
2023-03-17T16:14:15.963Z,16.58
2023-03-17T16:15:23.350Z,18.42
2023-03-17T16:16:33.445Z,22.83
2023-03-17T16:17:36.165Z,15.02
2023-03-17T16:18:42.002Z,18.98
2023-03-17T16:19:45.180Z,21.25
2023-03-17T16:20:51.950Z,16.05
2023-03-17T16:21:55.612Z,13.60
2023-03-17T16:23:05.847Z,15.75
2023-03-17T16:24:17.267Z,13.50
2023-03-17T16:25:26.443Z,15.73
2023-03-17T16:26:30.281Z,16.65
2023-03-17T16:27:32.644Z,15.48
2023-03-17T16:28:36.396Z,14.75
2023-03-17T16:29:38.962Z,12.73
2023-03-17T16:30:43.087Z,14.23
2023-03-17T16:31:49.569Z,19.20
2023-03-17T16:32:53.270Z,16.10
2023-03-17T16:33:59.369Z,14.20
2023-03-17T16:35:02.193Z,11.73
2023-03-17T16:36:06.084Z,24.25
2023-03-17T16:37:13.383Z,19.05
2023-03-17T16:38:19.367Z,16.70
2023-03-17T16:39:24.007Z,19.25
2023-03-17T16:40:30.479Z,15.13
2023-03-17T16:41:35.473Z,15.80
2023-03-17T16:42:43.110Z,16.20
2023-03-17T16:43:51.145Z,16.75
2023-03-17T16:44:55.165Z,14.85
2023-03-17T16:46:00.321Z,15.00
2023-03-17T16:47:04.212Z,17.33
2023-03-17T16:48:07.075Z,19.02
2023-03-17T16:49:14.367Z,20.80
2023-03-17T16:50:18.672Z,15.93
2023-03-17T16:51:22.482Z,20.27
2023-03-17T16:52:25.932Z,15.65
2023-03-17T16:53:29.739Z,15.52
2023-03-17T16:54:33.666Z,16.95
2023-03-17T16:55:37.101Z,16.23
2023-03-17T16:56:42.506Z,15.57
2023-03-17T16:57:47.216Z,18.05
2023-03-17T16:58:52.337Z,12.80
2023-03-17T16:59:54.897Z,11.68
2023-03-17T17:01:01.405Z,15.63
2023-03-17T17:02:04.589Z,15.20
2023-03-17T17:03:08.114Z,15.77
2023-03-17T17:04:13.421Z,11.25
2023-03-17T17:05:18.109Z,17.35
2023-03-17T17:06:23.733Z,17.90
2023-03-17T17:07:26.256Z,18.70
2023-03-17T17:08:29.783Z,12.93
2023-03-17T17:09:32.330Z,13.85
2023-03-17T17:10:37.826Z,16.50
2023-03-17T17:11:40.289Z,18.83
2023-03-17T17:12:43.911Z,13.63
2023-03-17T17:13:49.975Z,12.93
2023-03-17T17:14:52.593Z,18.92
2023-03-17T17:15:56.602Z,12.80
2023-03-17T17:16:59.488Z,18.88
2023-03-17T17:18:06.369Z,20.63
2023-03-17T17:19:17.496Z,15.05
2023-03-17T17:20:21.791Z,14.23
2023-03-17T17:21:26.388Z,12.75
2023-03-17T17:22:28.829Z,14.20
2023-03-17T17:23:32.388Z,16.00
2023-03-17T17:24:35.863Z,20.48
2023-03-17T17:25:38.744Z,16.15
2023-03-17T17:26:42.460Z,15.38
2023-03-17T17:27:46.384Z,17.65
2023-03-17T17:28:50.329Z,18.00
2023-03-17T17:29:52.899Z,14.90
2023-03-17T17:30:58.722Z,19.02
2023-03-17T17:32:02.342Z,23.65
2023-03-17T17:33:05.557Z,16.13
2023-03-17T17:34:09.214Z,16.60
2023-03-17T17:35:13.531Z,14.20
2023-03-17T17:36:18.991Z,14.68
2023-03-17T17:37:21.823Z,14.98
2023-03-17T17:38:27.797Z,17.58
2023-03-17T17:39:30.782Z,15.93
2023-03-17T17:40:34.671Z,14.20
2023-03-17T17:41:38.646Z,17.85
2023-03-17T17:42:41.636Z,13.00
2023-03-17T17:43:46.441Z,16.67
2023-03-17T17:44:51.401Z,16.48
2023-03-17T17:45:56.033Z,9.93
2023-03-17T17:46:58.637Z,13.57
2023-03-17T17:48:02.757Z,11.57
2023-03-17T17:49:06.486Z,14.93
2023-03-17T17:50:18.634Z,18.23
2023-03-17T17:51:22.373Z,13.48
2023-03-17T17:52:24.875Z,9.95
2023-03-17T17:53:28.818Z,12.63
2023-03-17T17:54:31.324Z,12.95
2023-03-17T17:55:35.185Z,12.65
2023-03-17T17:56:40.369Z,21.75
2023-03-17T17:57:43.236Z,15.00
2023-03-17T17:58:47.390Z,11.98
2023-03-17T17:59:50.080Z,13.95
2023-03-17T18:00:55.460Z,11.53
2023-03-17T18:01:59.989Z,18.25
2023-03-17T18:03:03.834Z,13.00
2023-03-17T18:04:06.421Z,19.40
2023-03-17T18:05:10.745Z,19.67
2023-03-17T18:06:17.325Z,23.50
2023-03-17T18:07:19.718Z,15.98
2023-03-17T18:08:23.966Z,16.25
2023-03-17T18:09:26.381Z,15.52
2023-03-17T18:10:31.184Z,12.30
2023-03-17T18:11:34.382Z,13.17
2023-03-17T18:12:38.272Z,28.30
2023-03-17T18:13:41.158Z,14.70
2023-03-17T18:14:44.968Z,17.83
2023-03-17T18:15:47.541Z,18.25
2023-03-17T18:16:51.593Z,16.13
2023-03-17T18:17:54.924Z,15.38
2023-03-17T18:19:00.638Z,15.68
2023-03-17T18:20:03.574Z,15.45
2023-03-17T18:21:08.389Z,15.02
2023-03-17T18:22:12.210Z,21.50
2023-03-17T18:23:16.688Z,19.00
2023-03-17T18:24:20.751Z,16.48
2023-03-17T18:25:25.505Z,19.65
2023-03-17T18:26:29.898Z,16.25
2023-03-17T18:27:32.784Z,16.25
2023-03-17T18:28:36.206Z,16.88
2023-03-17T18:29:38.948Z,17.77
2023-03-17T18:30:42.449Z,12.85
2023-03-17T18:31:47.787Z,16.23
2023-03-17T18:32:54.237Z,13.17
2023-03-17T18:34:00.481Z,17.67
2023-03-17T18:35:09.580Z,16.10
2023-03-17T18:36:13.099Z,20.48
2023-03-17T18:37:18.858Z,16.67
2023-03-17T18:38:22.433Z,16.50
2023-03-17T18:39:26.254Z,21.30
2023-03-17T18:40:29.120Z,16.80
2023-03-17T18:41:35.020Z,15.23
2023-03-17T18:42:38.235Z,12.48
2023-03-17T18:43:44.947Z,11.97
2023-03-17T18:44:47.811Z,14.32
2023-03-17T18:45:51.389Z,16.00
2023-03-17T18:46:54.276Z,15.57
2023-03-17T18:47:57.674Z,22.23
2023-03-17T18:49:00.005Z,22.48
2023-03-17T18:50:03.685Z,17.88
2023-03-17T18:51:07.165Z,16.95
2023-03-17T18:52:11.336Z,17.20
2023-03-17T18:53:16.360Z,16.25
2023-03-17T18:54:18.964Z,15.87
2023-03-17T18:55:22.468Z,15.55
2023-03-17T18:56:29.151Z,19.23
2023-03-17T18:57:32.686Z,20.52
2023-03-17T18:58:37.472Z,25.13
2023-03-17T18:59:40.102Z,14.15
2023-03-17T19:00:43.691Z,18.42
2023-03-17T19:01:47.344Z,14.32
2023-03-17T19:02:49.684Z,18.33
2023-03-17T19:03:53.302Z,20.88
2023-03-17T19:04:56.183Z,21.50
2023-03-17T19:05:59.884Z,16.35
2023-03-17T19:07:03.361Z,15.88
2023-03-17T19:08:06.846Z,28.17
2023-03-17T19:09:12.456Z,18.35
2023-03-17T19:10:15.208Z,20.08
2023-03-17T19:11:21.800Z,23.55
2023-03-17T19:12:24.408Z,25.27
2023-03-17T19:13:28.202Z,18.38
2023-03-17T19:14:30.780Z,20.60
2023-03-17T19:15:34.526Z,16.90
2023-03-17T19:16:37.031Z,19.95
2023-03-17T19:17:41.144Z,17.15
2023-03-17T19:18:45.830Z,20.17
2023-03-17T19:19:50.433Z,13.18
2023-03-17T19:20:54.607Z,22.05
2023-03-17T19:21:57.052Z,24.38
2023-03-17T19:23:00.952Z,15.73
2023-03-17T19:24:05.054Z,18.42
2023-03-17T19:25:11.650Z,16.48
2023-03-17T19:26:14.263Z,17.00
2023-03-17T19:27:18.081Z,20.08
2023-03-17T19:28:21.023Z,17.80
2023-03-17T19:29:24.523Z,18.52
2023-03-17T19:30:27.281Z,19.38
2023-03-17T19:31:31.343Z,14.05
2023-03-17T19:32:33.959Z,15.77
2023-03-17T19:33:37.979Z,17.02
2023-03-17T19:34:40.697Z,15.35
2023-03-17T19:35:45.681Z,19.55
2023-03-17T19:36:48.401Z,16.50
2023-03-17T19:37:51.815Z,15.65
2023-03-17T19:38:54.308Z,18.95
2023-03-17T19:39:57.845Z,15.48
2023-03-17T19:41:01.670Z,14.07
2023-03-17T19:42:05.323Z,17.85
2023-03-17T19:43:07.786Z,16.30
2023-03-17T19:44:11.413Z,18.90
2023-03-17T19:45:13.767Z,17.45
2023-03-17T19:46:17.765Z,21.83
2023-03-17T19:47:20.296Z,14.67
2023-03-17T19:48:24.219Z,14.13
2023-03-17T19:49:27.757Z,24.65
2023-03-17T19:50:33.127Z,18.88
2023-03-17T19:51:36.281Z,20.30
2023-03-17T19:52:39.990Z,21.27
2023-03-17T19:53:42.531Z,18.40
2023-03-17T19:54:46.433Z,18.33
2023-03-17T19:55:49.045Z,18.92
2023-03-17T19:56:54.208Z,17.85
2023-03-17T19:57:56.817Z,14.10
2023-03-17T19:59:00.731Z,18.10
2023-03-17T20:00:03.277Z,18.60
2023-03-17T20:01:07.680Z,19.48
2023-03-17T20:02:15.127Z,15.07
2023-03-17T20:03:18.016Z,19.25
2023-03-17T20:04:23.345Z,17.80
2023-03-17T20:05:26.429Z,14.93
2023-03-17T20:06:32.131Z,21.77
2023-03-17T20:07:35.210Z,17.60
2023-03-17T20:08:38.836Z,24.27
2023-03-17T20:09:42.379Z,18.95
2023-03-17T20:10:46.308Z,24.83
2023-03-17T20:11:48.771Z,18.00
2023-03-17T20:12:53.717Z,15.25
2023-03-17T20:13:56.266Z,22.10
2023-03-17T20:15:00.362Z,18.98
2023-03-17T20:16:04.967Z,24.70
2023-03-17T20:17:07.674Z,16.50
2023-03-17T20:18:11.453Z,17.73
2023-03-17T20:19:14.135Z,22.47
2023-03-17T20:20:18.077Z,24.27
2023-03-17T20:21:20.675Z,18.92
2023-03-17T20:22:24.167Z,23.63
2023-03-17T20:23:27.583Z,17.73
2023-03-17T20:24:31.776Z,19.02
2023-03-17T20:25:35.977Z,21.52
2023-03-17T20:26:40.125Z,14.48
2023-03-17T20:27:43.637Z,18.63
2023-03-17T20:28:47.561Z,23.90
2023-03-17T20:29:51.627Z,20.37
2023-03-17T20:30:58.825Z,20.20
2023-03-17T20:32:02.498Z,18.80
2023-03-17T20:33:05.804Z,16.23
2023-03-17T20:34:10.302Z,22.13
2023-03-17T20:35:13.064Z,22.35
2023-03-17T20:36:16.573Z,20.50
2023-03-17T20:37:19.214Z,17.42
2023-03-17T20:38:23.836Z,26.23
2023-03-17T20:39:26.501Z,23.80
2023-03-17T20:40:30.846Z,24.10
2023-03-17T20:41:33.887Z,15.68
2023-03-17T20:42:37.933Z,23.27
2023-03-17T20:43:40.912Z,19.30
2023-03-17T20:44:45.989Z,19.27
2023-03-17T20:45:51.290Z,19.30
2023-03-17T20:46:55.182Z,16.75
2023-03-17T20:47:58.296Z,20.02
2023-03-17T20:49:02.295Z,18.10
2023-03-17T20:50:06.405Z,25.05
2023-03-17T20:51:16.527Z,20.60
2023-03-17T20:52:20.204Z,18.50
2023-03-17T20:53:23.559Z,26.83
2023-03-17T20:54:27.577Z,20.30
2023-03-17T20:55:31.018Z,18.02
2023-03-17T20:56:35.084Z,25.88
2023-03-17T20:57:38.204Z,22.02
2023-03-17T20:58:41.677Z,29.70
2023-03-17T20:59:46.661Z,19.67
2023-03-17T21:00:50.622Z,19.02
2023-03-17T21:01:54.248Z,29.43
2023-03-17T21:02:57.394Z,26.90
2023-03-17T21:04:01.628Z,23.05
2023-03-17T21:05:05.731Z,25.08
2023-03-17T21:06:09.936Z,19.38
2023-03-17T21:07:13.831Z,25.63
2023-03-17T21:08:16.399Z,21.95
2023-03-17T21:09:20.364Z,21.70
2023-03-17T21:10:22.989Z,17.42
2023-03-17T21:11:26.923Z,20.98
2023-03-17T21:12:29.399Z,19.50
2023-03-17T21:13:33.574Z,23.77
2023-03-17T21:14:36.779Z,26.13
2023-03-17T21:15:42.594Z,25.00
2023-03-17T21:16:47.396Z,25.35
2023-03-17T21:17:51.254Z,24.05
2023-03-17T21:18:54.807Z,27.42
2023-03-17T21:19:58.507Z,26.65
2023-03-17T21:21:01.133Z,21.90
2023-03-17T21:22:05.533Z,20.48
2023-03-17T21:23:08.130Z,14.73
2023-03-17T21:24:25.697Z,13.77
2023-03-17T21:25:29.192Z,21.38
2023-03-17T21:26:32.555Z,21.23
2023-03-17T21:27:38.980Z,23.55
2023-03-17T21:28:42.205Z,22.83
2023-03-17T21:29:45.783Z,19.55
2023-03-17T21:30:49.894Z,20.63
2023-03-17T21:31:53.434Z,15.80
2023-03-17T21:32:55.896Z,23.38
2023-03-17T21:33:59.844Z,22.17
2023-03-17T21:35:02.299Z,24.50
2023-03-17T21:36:06.656Z,24.35
2023-03-17T21:37:09.315Z,22.98
2023-03-17T21:38:12.883Z,23.63
2023-03-17T21:39:15.322Z,16.23
2023-03-17T21:40:19.557Z,20.17
2023-03-17T21:41:23.907Z,21.02
2023-03-17T21:42:28.085Z,20.27
2023-03-17T21:43:30.582Z,28.13
2023-03-17T21:44:34.131Z,19.00
2023-03-17T21:45:37.007Z,20.42
2023-03-17T21:46:42.107Z,22.40
2023-03-17T21:47:46.075Z,19.15
2023-03-17T21:48:49.795Z,19.90
2023-03-17T21:49:53.864Z,23.80
2023-03-17T21:50:56.294Z,25.70
2023-03-17T21:51:59.866Z,24.35
2023-03-17T21:53:02.382Z,22.10
2023-03-17T21:54:06.117Z,25.70
2023-03-17T21:55:09.957Z,20.53
2023-03-17T21:56:13.872Z,19.17
2023-03-17T21:57:18.116Z,19.02
2023-03-17T21:58:21.568Z,20.75
2023-03-17T21:59:25.105Z,26.15
2023-03-17T22:00:35.922Z,19.30
2023-03-17T22:01:52.199Z,22.25
2023-03-17T22:02:56.166Z,20.00
2023-03-17T22:03:59.843Z,21.77
2023-03-17T22:05:03.795Z,17.95
2023-03-17T22:06:07.301Z,20.67
2023-03-17T22:07:12.443Z,22.05
2023-03-17T22:08:15.426Z,21.40
2023-03-17T22:09:19.533Z,21.02
2023-03-17T22:10:21.860Z,19.55
2023-03-17T22:11:25.508Z,17.25
2023-03-17T22:12:29.200Z,20.67
2023-03-17T22:13:31.789Z,22.00
2023-03-17T22:14:35.911Z,23.55
2023-03-17T22:15:38.351Z,30.05
2023-03-17T22:16:42.027Z,23.43
2023-03-17T22:17:46.511Z,22.63
2023-03-17T22:18:50.121Z,24.23
2023-03-17T22:19:53.362Z,23.25
2023-03-17T22:20:57.651Z,29.67
2023-03-17T22:22:00.125Z,20.05
2023-03-17T22:23:03.569Z,23.10
2023-03-17T22:24:07.415Z,23.98
2023-03-17T22:25:11.041Z,23.20
2023-03-17T22:26:15.535Z,29.98
2023-03-17T22:27:19.614Z,24.40
2023-03-17T22:28:22.749Z,21.27
2023-03-17T22:29:26.478Z,24.38